地図

経路データ

SID SEASON NUMBER BASIN SUBBASIN NAME ISO_TIME NATURE LAT LON WMO_WIND WMO_PRES WMO_AGENCY TRACK_TYPE DIST2LAND LANDFALL IFLAG USA_AGENCY USA_ATCF_ID USA_LAT USA_LON USA_RECORD USA_STATUS USA_WIND USA_PRES USA_SSHS USA_R34_NE USA_R34_SE USA_R34_SW USA_R34_NW USA_R50_NE USA_R50_SE USA_R50_SW USA_R50_NW USA_R64_NE USA_R64_SE USA_R64_SW USA_R64_NW USA_POCI USA_ROCI USA_RMW USA_EYE TOKYO_LAT TOKYO_LON TOKYO_GRADE TOKYO_WIND TOKYO_PRES TOKYO_R50_DIR TOKYO_R50_LONG TOKYO_R50_SHORT TOKYO_R30_DIR TOKYO_R30_LONG TOKYO_R30_SHORT TOKYO_LAND CMA_LAT CMA_LON CMA_CAT CMA_WIND CMA_PRES HKO_LAT HKO_LON HKO_CAT HKO_WIND HKO_PRES NEWDELHI_LAT NEWDELHI_LON NEWDELHI_GRADE NEWDELHI_WIND NEWDELHI_PRES NEWDELHI_CI NEWDELHI_DP NEWDELHI_POCI REUNION_LAT REUNION_LON REUNION_TYPE REUNION_WIND REUNION_PRES REUNION_TNUM REUNION_CI REUNION_RMW REUNION_R34_NE REUNION_R34_SE REUNION_R34_SW REUNION_R34_NW REUNION_R50_NE REUNION_R50_SE REUNION_R50_SW REUNION_R50_NW REUNION_R64_NE REUNION_R64_SE REUNION_R64_SW REUNION_R64_NW BOM_LAT BOM_LON BOM_TYPE BOM_WIND BOM_PRES BOM_TNUM BOM_CI BOM_RMW BOM_R34_NE BOM_R34_SE BOM_R34_SW BOM_R34_NW BOM_R50_NE BOM_R50_SE BOM_R50_SW BOM_R50_NW BOM_R64_NE BOM_R64_SE BOM_R64_SW BOM_R64_NW BOM_ROCI BOM_POCI BOM_EYE BOM_POS_METHOD BOM_PRES_METHOD NADI_LAT NADI_LON NADI_CAT NADI_WIND NADI_PRES WELLINGTON_LAT WELLINGTON_LON WELLINGTON_WIND WELLINGTON_PRES DS824_LAT DS824_LON DS824_STAGE DS824_WIND DS824_PRES TD9636_LAT TD9636_LON TD9636_STAGE TD9636_WIND TD9636_PRES TD9635_LAT TD9635_LON TD9635_WIND TD9635_PRES TD9635_ROCI NEUMANN_LAT NEUMANN_LON NEUMANN_CLASS NEUMANN_WIND NEUMANN_PRES MLC_LAT MLC_LON MLC_CLASS MLC_WIND MLC_PRES USA_GUST BOM_GUST BOM_GUST_PER REUNION_GUST REUNION_GUST_PER USA_SEAHGT USA_SEARAD_NE USA_SEARAD_SE USA_SEARAD_SW USA_SEARAD_NW STORM_SPEED STORM_DIR
1995271N30178 1995 74 WP MM NOT_NAMED 1995-09-27 18:00:00 NR 30.4000 178.200 main 2379 2379 O_____________ jtwc_wp WP221995 30.4000 178.200 15 -1 13 232
1995271N30178 1995 74 WP MM NOT_NAMED 1995-09-27 21:00:00 NR 29.9931 177.596 main 2421 2421 P_____________ WP221995 29.9931 177.596 15 -1 13 232
1995271N30178 1995 74 WP MM NOT_NAMED 1995-09-28 00:00:00 NR 29.6000 177.000 main 2465 2465 O_____________ jtwc_wp WP221995 29.6000 177.000 15 -1 13 234
1995271N30178 1995 74 WP MM NOT_NAMED 1995-09-28 03:00:00 NR 29.2346 176.408 main 2511 2511 P_____________ WP221995 29.2346 176.408 15 -1 13 236
1995271N30178 1995 74 WP MM NOT_NAMED 1995-09-28 06:00:00 NR 28.9000 175.800 main 2560 2560 O_____________ jtwc_wp WP221995 28.9000 175.800 15 -1 13 239
1995271N30178 1995 74 WP MM NOT_NAMED 1995-09-28 09:00:00 NR 28.5847 175.165 main 2611 2611 P_____________ WP221995 28.5847 175.165 15 -1 13 242
1995271N30178 1995 74 WP MM NOT_NAMED 1995-09-28 12:00:00 NR 28.3000 174.500 main 2673 2673 O_____________ jtwc_wp WP221995 28.3000 174.500 15 -1 13 245
1995271N30178 1995 74 WP MM NOT_NAMED 1995-09-28 15:00:00 NR 28.0349 173.800 main 2735 2735 P_____________ WP221995 28.0349 173.800 15 -1 13 248
1995271N30178 1995 74 WP MM NOT_NAMED 1995-09-28 18:00:00 NR 27.8000 173.100 main 2800 2800 O_____________ jtwc_wp WP221995 27.8000 173.100 15 -1 13 249
1995271N30178 1995 74 WP MM NOT_NAMED 1995-09-28 21:00:00 NR 27.5772 172.435 main 2818 2801 P_____________ WP221995 27.5772 172.435 15 -1 12 251
1995271N30178 1995 74 WP MM NOT_NAMED 1995-09-29 00:00:00 NR 27.4000 171.800 main 2801 2775 O_____________ jtwc_wp WP221995 27.4000 171.800 15 -1 11 255
1995271N30178 1995 74 WP MM NOT_NAMED 1995-09-29 03:00:00 NR 27.2772 171.185 main 2775 2749 P_____________ WP221995 27.2772 171.185 17 -1 11 259
1995271N30178 1995 74 WP MM NOT_NAMED 1995-09-29 06:00:00 NR 27.2000 170.600 main 2749 2731 O_____________ jtwc_wp WP221995 27.2000 170.600 20 -1 10 261
1995271N30178 1995 74 WP MM NOT_NAMED 1995-09-29 09:00:00 NR 27.1198 170.035 main 2725 2697 P_____________ WP221995 27.1198 170.035 20 -1 10 264
1995271N30178 1995 74 WP MM NOT_NAMED 1995-09-29 12:00:00 NR 27.1000 169.500 main 2697 2661 O_____________ jtwc_wp WP221995 27.1000 169.500 20 -1 9 274
1995271N30178 1995 74 WP MM NOT_NAMED 1995-09-29 15:00:00 NR 27.1849 168.978 main 2661 2625 P_____________ WP221995 27.1849 168.978 20 -1 9 283
1995271N30178 1995 74 WP MM NOT_NAMED 1995-09-29 18:00:00 NR 27.3000 168.500 main 2625 2594 O_____________ jtwc_wp WP221995 27.3000 168.500 20 -1 8 282
1995271N30178 1995 74 WP MM NOT_NAMED 1995-09-29 21:00:00 NR 27.3572 168.092 main 2594 2573 P_____________ WP221995 27.3572 168.092 20 -1 7 278
1995271N30178 1995 74 WP MM NOT_NAMED 1995-09-30 00:00:00 NR 27.4000 167.700 main 2573 2551 O_____________ jtwc_wp WP221995 27.4000 167.700 20 -1 7 277
1995271N30178 1995 74 WP MM NOT_NAMED 1995-09-30 03:00:00 NR 27.4424 167.265 main 2551 2515 P_____________ WP221995 27.4424 167.265 20 -1 8 277
1995271N30178 1995 74 WP MM NOT_NAMED 1995-09-30 06:00:00 NR 27.5000 166.800 main 2515 2480 O_____________ jtwc_wp WP221995 27.5000 166.800 20 -1 9 280
1995271N30178 1995 74 WP MM NOT_NAMED 1995-09-30 09:00:00 NR 27.6000 166.300 main 2480 2445 P_____________ WP221995 27.6000 166.300 22 -1 9 283
1995271N30178 1995 74 WP MM NOT_NAMED 1995-09-30 12:00:00 NR 27.7000 165.800 main 2445 2415 O_____________ jtwc_wp WP221995 27.7000 165.800 25 -1 9 281
1995271N30178 1995 74 WP MM NOT_NAMED 1995-09-30 15:00:00 NR 27.7649 165.327 main 2410 2390 P_____________ WP221995 27.7649 165.327 25 -1 8 277
1995271N30178 1995 74 WP MM NOT_NAMED 1995-09-30 18:00:00 NR 27.8000 164.900 main 2390 2361 O_____________ jtwc_wp WP221995 27.8000 164.900 25 -1 7 277
1995271N30178 1995 74 WP MM NOT_NAMED 1995-09-30 21:00:00 NR 27.8524 164.520 main 2361 2356 P_____________ WP221995 27.8524 164.520 27 -1 6 270
1995271N30178 1995 74 WP MM NOT_NAMED 1995-10-01 00:00:00 NR 27.8000 164.200 main 2356 2346 O_____________ jtwc_wp WP221995 27.8000 164.200 30 -1 6 241
1995271N30178 1995 74 WP MM NOT_NAMED 1995-10-01 03:00:00 NR 27.5450 163.905 main 2351 2343 P_____________ WP221995 27.5450 163.905 30 -1 7 217
1995271N30178 1995 74 WP MM NOT_NAMED 1995-10-01 06:00:00 NR 27.2000 163.700 main 2350 2350 O_____________ jtwc_wp WP221995 27.2000 163.700 30 -1 7 200
1995271N30178 1995 74 WP MM NOT_NAMED 1995-10-01 09:00:00 NR 26.8999 163.643 main 2358 2358 P_____________ WP221995 26.8999 163.643 30 -1 6 188
1995271N30178 1995 74 WP MM NOT_NAMED 1995-10-01 12:00:00 NR 26.6000 163.600 main 2375 2373 O_____________ jtwc_wp WP221995 26.6000 163.600 30 -1 6 197
1995271N30178 1995 74 WP MM NOT_NAMED 1995-10-01 15:00:00 NR 26.3074 163.445 main 2376 2371 P_____________ WP221995 26.3074 163.445 27 -1 7 211
1995271N30178 1995 74 WP MM NOT_NAMED 1995-10-01 18:00:00 NR 26.0000 163.200 main 2377 2370 O_____________ jtwc_wp WP221995 26.0000 163.200 25 -1 9 217
1995271N30178 1995 74 WP MM NOT_NAMED 1995-10-01 21:00:00 NR 25.6275 162.880 main 2376 2361 P_____________ WP221995 25.6275 162.880 25 -1 9 222
1995271N30178 1995 74 WP MM NOT_NAMED 1995-10-02 00:00:00 NR 25.3000 162.500 main 2361 2341 O_____________ jtwc_wp WP221995 25.3000 162.500 25 -1 9 234
1995271N30178 1995 74 WP MM NOT_NAMED 1995-10-02 03:00:00 NR 25.1200 162.108 main 2341 2315 P_____________ WP221995 25.1200 162.108 25 -1 8 247
1995271N30178 1995 74 WP MM NOT_NAMED 1995-10-02 06:00:00 NR 25.0000 161.700 main 2315 2289 O_____________ jtwc_wp WP221995 25.0000 161.700 25 -1 8 250
1995271N30178 1995 74 WP MM NOT_NAMED 1995-10-02 09:00:00 NR 24.8498 161.308 main 2296 2271 P_____________ WP221995 24.8498 161.308 22 -1 8 248
1995271N30178 1995 74 WP MM NOT_NAMED 1995-10-02 12:00:00 NR 24.7000 160.900 main 2271 2245 O_____________ jtwc_wp WP221995 24.7000 160.900 20 -1 8 247
1995271N30178 1995 74 WP MM NOT_NAMED 1995-10-02 15:00:00 NR 24.5347 160.480 main 2252 2220 P_____________ WP221995 24.5347 160.480 20 -1 9 250
1995271N30178 1995 74 WP MM NOT_NAMED 1995-10-02 18:00:00 NR 24.4000 160.000 main 2220 2188 O_____________ jtwc_wp WP221995 24.4000 160.000 20 -1 10 257
1995271N30178 1995 74 WP MM NOT_NAMED 1995-10-02 21:00:00 NR 24.3122 159.445 main 2180 2134 P_____________ WP221995 24.3122 159.445 20 -1 11 265
1995271N30178 1995 74 WP MM NOT_NAMED 1995-10-03 00:00:00 NR 24.3000 158.800 main 2134 2073 O_____________ jtwc_wp WP221995 24.3000 158.800 20 -1 12 273
1995271N30178 1995 74 WP MM NOT_NAMED 1995-10-03 03:00:00 NR 24.3697 158.088 main 2073 2005 P_____________ WP221995 24.3697 158.088 20 -1 14 278
1995271N30178 1995 74 WP MM NOT_NAMED 1995-10-03 06:00:00 NR 24.5000 157.300 main 2005 1939 O_____________ jtwc_wp WP221995 24.5000 157.300 20 -1 15 281
1995271N30178 1995 74 WP MM NOT_NAMED 1995-10-03 09:00:00 NR 24.6573 156.465 main 1931 1858 P_____________ WP221995 24.6573 156.465 20 -1 16 281
1995271N30178 1995 74 WP MM NOT_NAMED 1995-10-03 12:00:00 NR 24.8000 155.600 main 1858 1793 O_____________ jtwc_wp WP221995 24.8000 155.600 20 -1 16 280
1995271N30178 1995 74 WP MM NOT_NAMED 1995-10-03 15:00:00 NR 24.9249 154.728 main 1785 1730 P_____________ WP221995 24.9249 154.728 20 -1 15 274
1995271N30178 1995 74 WP MM NOT_NAMED 1995-10-03 18:00:00 NR 24.9000 153.900 main 1730 1703 O_____________ jtwc_wp WP221995 24.9000 153.900 20 -1 14 257
1995271N30178 1995 74 WP MM NOT_NAMED 1995-10-03 21:00:00 NR 24.5943 153.177 main 1705 1689 P_____________ WP221995 24.5943 153.177 20 -1 15 241
1995271N30178 1995 74 WP MM NOT_NAMED 1995-10-04 00:00:00 NR 24.2000 152.500 main 1691 1669 O_____________ jtwc_wp WP221995 24.2000 152.500 20 -1 14 241
1995271N30178 1995 74 WP MM NOT_NAMED 1995-10-04 03:00:00 NR 23.9108 151.808 main 1671 1646 P_____________ WP221995 23.9108 151.808 17 -1 14 249
1995271N30178 1995 74 WP MM NOT_NAMED 1995-10-04 06:00:00 NR 23.7000 151.100 main 1646 O_____________ jtwc_wp WP221995 23.7000 151.100 15 -1 14 252

デジタル台風データ・検索

IBTrACS Databaseについて

本データベースは、米国NOAAが公開する1842年以降の世界の熱帯低気圧のベストトラックデータアーカイブInternational Best Track Archive for Climate Stewardship (IBTrACS)を、ウェブで閲覧しやすい形式に変換したものです。

最終更新日:2021-12-06